Time;durP1;ratioP1;P1;durP2;ratioP2;P2;SDS_P1;SDS_P2;PMS_P1;PMS_P2;Temp;Humidity;BMP_temperature;BMP_pressure;BME280_temperature;BME280_humidity;BME280_pressure;Samples;Min_cycle;Max_cycle;Signal;HPM_P1;HPM_P2
2021/11/07 00:00:56;;;;;;;8.48;4.57;;;10.50;98.40;;;;;;5014569;28;20018;-75
2021/11/07 00:03:27;;;;;;;6.63;4.30;;;10.50;98.50;;;;;;5015709;28;20025;-74
2021/11/07 00:06:18;;;;;;;;;;;10.40;98.50;;;;;;5016063;28;20029;-75
2021/11/07 00:11:45;;;;;;;6.57;4.38;;;10.40;98.50;;;;;;4974497;28;20359;-74
2021/11/07 00:14:12;;;;;;;7.72;4.75;;;10.40;98.60;;;;;;5006333;28;20052;-75
2021/11/07 00:16:40;;;;;;;7.60;4.72;;;10.40;98.70;;;;;;5014034;28;20117;-74
2021/11/07 00:22:02;;;;;;;9.50;5.75;;;10.30;98.90;;;;;;5015615;28;20032;-75
2021/11/07 00:27:36;;;;;;;7.72;4.95;;;10.30;99.10;;;;;;5015085;28;20029;-74
2021/11/07 00:37:47;;;;;;;7.88;4.70;;;10.20;99.40;;;;;;5015023;28;19952;-74
2021/11/07 00:45:26;;;;;;;10.57;5.40;;;10.20;99.50;;;;;;5015297;28;20121;-74
2021/11/07 00:48:06;;;;;;;9.27;5.30;;;10.20;99.50;;;;;;5013775;28;20401;-73
2021/11/07 00:50:54;;;;;;;9.63;5.30;;;10.30;99.50;;;;;;5015297;28;20033;-73
2021/11/07 00:53:46;;;;;;;9.43;5.47;;;10.30;99.50;;;;;;5014379;28;20068;-73
2021/11/07 00:56:33;;;;;;;8.70;5.45;;;10.30;99.60;;;;;;5014364;28;20529;-74
2021/11/07 00:59:06;;;;;;;8.25;5.00;;;10.20;99.70;;;;;;5013726;28;20389;-72
2021/11/07 01:01:35;;;;;;;8.32;4.75;;;10.20;99.80;;;;;;5013712;28;20037;-74
2021/11/07 01:04:03;;;;;;;5.68;4.35;;;10.30;99.80;;;;;;5013149;28;20018;-73
2021/11/07 01:06:30;;;;;;;6.45;4.75;;;10.30;99.80;;;;;;5013870;28;20394;-73
2021/11/07 01:08:55;;;;;;;6.75;4.72;;;10.30;99.80;;;;;;5014443;28;20101;-73
2021/11/07 01:11:21;;;;;;;8.07;5.57;;;10.40;99.80;;;;;;5014591;28;20056;-73
2021/11/07 01:13:47;;;;;;;7.80;4.80;;;10.40;99.80;;;;;;5014499;28;20171;-74
2021/11/07 01:16:13;;;;;;;8.63;5.75;;;10.40;99.90;;;;;;5014247;28;20429;-74
2021/11/07 01:18:39;;;;;;;7.93;5.80;;;10.40;99.80;;;;;;5014173;28;20022;-73
2021/11/07 01:21:05;;;;;;;8.82;5.63;;;10.40;99.90;;;;;;5014599;28;20033;-74
2021/11/07 01:23:39;;;;;;;7.88;5.10;;;10.50;99.90;;;;;;5013014;28;20014;-74
2021/11/07 01:26:17;;;;;;;8.98;5.50;;;10.50;99.90;;;;;;5014143;28;20018;-74
2021/11/07 01:28:49;;;;;;;9.77;5.57;;;10.50;99.90;;;;;;5013451;28;20349;-73
2021/11/07 01:31:15;;;;;;;9.07;6.07;;;10.50;99.90;;;;;;5014472;28;20018;-74
2021/11/07 01:33:42;;;;;;;12.98;7.03;;;10.50;99.90;;;;;;5013676;28;20217;-73
2021/11/07 01:36:26;;;;;;;10.57;6.85;;;10.50;99.90;;;;;;5013329;28;20029;-74
2021/11/07 01:39:12;;;;;;;11.90;6.53;;;10.50;99.90;;;;;;5013889;28;20358;-73
2021/11/07 01:41:59;;;;;;;11.07;7.03;;;10.50;99.90;;;;;;5014417;28;20076;-73
2021/11/07 01:44:26;;;;;;;8.65;5.90;;;10.50;99.90;;;;;;5013921;28;20112;-73
2021/11/07 01:46:55;;;;;;;11.45;7.75;;;10.60;99.90;;;;;;5013780;28;20022;-74
2021/11/07 01:49:25;;;;;;;13.18;8.43;;;10.60;99.90;;;;;;5012350;28;20339;-74
2021/11/07 01:51:54;;;;;;;12.82;8.10;;;10.60;99.90;;;;;;5014272;28;20040;-74
2021/11/07 01:56:46;;;;;;;11.82;7.55;;;10.60;99.90;;;;;;5013653;28;20026;-74
2021/11/07 01:59:12;;;;;;;13.82;8.52;;;10.60;99.90;;;;;;5012193;28;20018;-74
2021/11/07 02:01:38;;;;;;;15.02;8.18;;;10.50;99.90;;;;;;5013552;28;20026;-74
2021/11/07 02:04:04;;;;;;;15.65;8.80;;;10.60;99.90;;;;;;5013152;28;20028;-74
2021/11/07 02:06:30;;;;;;;15.50;8.85;;;10.50;99.90;;;;;;5013544;28;20025;-74
2021/11/07 02:08:56;;;;;;;12.43;7.25;;;10.50;99.90;;;;;;5013446;28;20074;-74
2021/11/07 02:11:22;;;;;;;17.83;10.40;;;10.60;99.90;;;;;;5013626;28;20029;-75
2021/11/07 02:13:50;;;;;;;15.43;9.48;;;10.60;99.90;;;;;;5013218;28;20028;-74
2021/11/07 02:16:19;;;;;;;13.80;8.45;;;10.60;99.90;;;;;;5011955;28;20017;-74
2021/11/07 02:18:46;;;;;;;13.77;8.95;;;10.60;99.90;;;;;;5011938;28;20446;-73
2021/11/07 02:21:12;;;;;;;16.90;9.30;;;10.60;99.90;;;;;;5013937;28;20430;-74
2021/11/07 02:23:37;;;;;;;16.60;9.55;;;10.60;99.90;;;;;;5011634;28;20072;-73
2021/11/07 02:26:05;;;;;;;15.05;8.95;;;10.60;99.90;;;;;;5013317;28;20049;-74
2021/11/07 02:28:37;;;;;;;15.15;7.82;;;10.50;99.90;;;;;;5013206;28;20018;-73
2021/11/07 02:31:06;;;;;;;16.25;9.95;;;10.60;99.90;;;;;;5013460;28;20056;-74
2021/11/07 02:33:31;;;;;;;18.88;11.10;;;10.60;99.90;;;;;;5013418;28;20048;-73
2021/11/07 02:36:04;;;;;;;18.08;10.38;;;10.60;99.90;;;;;;5013194;28;20101;-73
2021/11/07 02:38:30;;;;;;;15.50;8.75;;;10.60;99.90;;;;;;5012105;28;20022;-74
2021/11/07 02:40:55;;;;;;;16.60;9.07;;;10.60;99.90;;;;;;5012789;28;20370;-74
2021/11/07 02:43:21;;;;;;;16.08;9.25;;;10.60;99.90;;;;;;5013408;28;20022;-74
2021/11/07 02:45:47;;;;;;;16.20;9.70;;;10.70;99.90;;;;;;5011718;28;20433;-74
2021/11/07 02:48:12;;;;;;;14.85;8.68;;;10.70;99.90;;;;;;5012437;28;20026;-74
2021/11/07 02:50:38;;;;;;;17.17;9.65;;;10.70;99.90;;;;;;5012717;28;20115;-74
2021/11/07 02:53:04;;;;;;;19.38;9.52;;;10.70;99.90;;;;;;5012955;28;20053;-76
2021/11/07 02:55:29;;;;;;;18.15;10.00;;;10.70;99.90;;;;;;5013033;28;20034;-75
2021/11/07 02:57:58;;;;;;;18.27;9.90;;;10.70;99.90;;;;;;5012981;28;20076;-74
2021/11/07 03:00:24;;;;;;;19.27;10.02;;;10.70;99.90;;;;;;5011574;28;20084;-74
2021/11/07 03:02:50;;;;;;;15.77;8.85;;;10.70;99.90;;;;;;5011621;28;20022;-74
2021/11/07 03:05:17;;;;;;;14.13;7.90;;;10.70;99.90;;;;;;5012784;28;20075;-75
2021/11/07 03:07:43;;;;;;;14.30;8.50;;;10.70;99.90;;;;;;5011718;28;20446;-75
2021/11/07 03:10:11;;;;;;;12.75;7.93;;;10.70;99.90;;;;;;5011632;28;20010;-75
2021/11/07 03:12:37;;;;;;;16.40;8.82;;;10.70;99.90;;;;;;5012128;28;20025;-75
2021/11/07 03:15:05;;;;;;;16.85;8.63;;;10.70;99.90;;;;;;5013093;28;20112;-75
2021/11/07 03:17:31;;;;;;;17.95;9.23;;;10.70;99.90;;;;;;5011128;28;20026;-75
2021/11/07 03:19:56;;;;;;;20.13;10.32;;;10.80;99.90;;;;;;5011791;28;20025;-75
2021/11/07 03:22:27;;;;;;;15.80;7.70;;;10.80;99.90;;;;;;5016285;28;20014;-75
2021/11/07 03:24:54;;;;;;;17.97;8.77;;;10.80;99.90;;;;;;5015789;28;20026;-75
2021/11/07 03:27:46;;;;;;;14.65;7.57;;;10.80;99.90;;;;;;5015082;28;20461;-75
2021/11/07 03:30:36;;;;;;;15.25;8.68;;;10.80;99.90;;;;;;5011901;28;20037;-75
2021/11/07 03:33:20;;;;;;;15.25;7.72;;;10.90;99.90;;;;;;5016582;28;20419;-75
2021/11/07 03:35:47;;;;;;;16.20;8.35;;;10.90;99.90;;;;;;5014285;28;20085;-75
2021/11/07 03:38:12;;;;;;;15.10;7.88;;;10.90;99.90;;;;;;5014594;28;20041;-75
2021/11/07 03:40:39;;;;;;;14.93;7.90;;;10.90;99.90;;;;;;5015980;28;20026;-75
2021/11/07 03:43:05;;;;;;;14.13;8.02;;;10.90;99.90;;;;;;5015866;28;20097;-75
2021/11/07 03:45:31;;;;;;;16.08;7.95;;;10.90;99.90;;;;;;5014502;28;20049;-74
2021/11/07 03:47:56;;;;;;;14.27;6.95;;;11.00;99.90;;;;;;5014563;28;20017;-74
2021/11/07 03:50:25;;;;;;;14.32;7.25;;;11.00;99.90;;;;;;5015983;28;20409;-75
2021/11/07 03:52:51;;;;;;;12.60;6.03;;;11.00;99.90;;;;;;5015081;28;20145;-74
2021/11/07 03:55:17;;;;;;;16.30;7.90;;;11.00;99.90;;;;;;5016010;28;20033;-75
2021/11/07 03:57:43;;;;;;;11.38;6.25;;;11.00;99.90;;;;;;5014599;28;20017;-75
2021/11/07 04:00:11;;;;;;;14.00;6.72;;;11.00;99.90;;;;;;5015514;28;20022;-76
2021/11/07 04:02:37;;;;;;;12.27;6.70;;;11.00;99.90;;;;;;5015296;28;20022;-75
2021/11/07 04:05:03;;;;;;;15.07;6.65;;;11.10;99.90;;;;;;5015271;28;20026;-75
2021/11/07 04:07:29;;;;;;;14.40;7.00;;;11.10;99.90;;;;;;5015377;28;20164;-75
2021/11/07 04:09:55;;;;;;;11.73;5.90;;;11.10;99.90;;;;;;5016446;28;20526;-75
2021/11/07 04:12:20;;;;;;;11.75;5.75;;;11.10;99.90;;;;;;5014009;28;20384;-76
2021/11/07 04:14:46;;;;;;;10.40;4.82;;;11.00;99.90;;;;;;5013939;28;20360;-76
2021/11/07 04:17:12;;;;;;;11.05;4.07;;;11.00;99.90;;;;;;5015132;28;20100;-76
2021/11/07 04:19:38;;;;;;;10.90;3.90;;;10.90;99.90;;;;;;5015548;28;20018;-76
2021/11/07 04:22:07;;;;;;;7.28;3.65;;;10.90;99.90;;;;;;5013888;28;20025;-76
2021/11/07 04:24:34;;;;;;;7.45;3.42;;;10.80;99.90;;;;;;5013758;28;20014;-76
2021/11/07 04:27:00;;;;;;;9.00;3.10;;;10.70;99.90;;;;;;5014032;28;20029;-75
2021/11/07 04:29:26;;;;;;;6.25;2.67;;;10.80;99.90;;;;;;5015800;28;20442;-76
2021/11/07 04:31:53;;;;;;;5.60;2.58;;;10.70;99.90;;;;;;5012673;28;20026;-76
2021/11/07 04:34:18;;;;;;;5.35;2.53;;;10.70;99.90;;;;;;5013742;28;20437;-76
2021/11/07 04:36:44;;;;;;;4.70;2.22;;;10.70;99.90;;;;;;5014928;28;20018;-75
2021/11/07 04:39:10;;;;;;;3.75;1.85;;;10.70;99.90;;;;;;5014917;28;20057;-76
2021/11/07 04:41:37;;;;;;;6.13;2.47;;;10.70;99.90;;;;;;5015112;28;20429;-76
2021/11/07 04:44:03;;;;;;;4.18;1.58;;;10.60;99.90;;;;;;5013433;28;20076;-76
2021/11/07 04:46:29;;;;;;;8.13;1.58;;;10.60;99.90;;;;;;5014404;28;20042;-76
2021/11/07 04:48:55;;;;;;;4.43;1.80;;;10.60;99.90;;;;;;5014644;28;20024;-74
2021/11/07 04:51:21;;;;;;;3.90;1.38;;;10.60;99.90;;;;;;5014533;28;20025;-75
2021/11/07 04:53:46;;;;;;;4.75;1.60;;;10.70;99.90;;;;;;5013208;28;20026;-75
2021/11/07 04:56:13;;;;;;;3.50;1.50;;;10.70;99.90;;;;;;5014432;28;20110;-73
2021/11/07 04:58:40;;;;;;;5.38;1.40;;;10.70;99.90;;;;;;5014424;28;20040;-75
2021/11/07 05:01:06;;;;;;;5.78;1.52;;;10.70;99.90;;;;;;5013377;28;20026;-75
2021/11/07 05:03:32;;;;;;;4.07;1.80;;;10.70;99.90;;;;;;5014289;28;20362;-75
2021/11/07 05:05:58;;;;;;;3.67;1.48;;;10.70;99.90;;;;;;5015046;28;20034;-75
2021/11/07 05:08:24;;;;;;;4.20;1.60;;;10.70;99.90;;;;;;5012914;28;20029;-76
2021/11/07 05:10:51;;;;;;;5.50;1.52;;;10.70;99.90;;;;;;5012984;28;20080;-75
2021/11/07 05:13:17;;;;;;;4.93;1.67;;;10.70;99.90;;;;;;5014549;28;20104;-75
2021/11/07 05:15:43;;;;;;;10.40;1.65;;;10.70;99.90;;;;;;5012855;28;20403;-76
2021/11/07 05:18:09;;;;;;;4.15;2.03;;;10.70;99.90;;;;;;5013835;28;20101;-75
2021/11/07 05:20:35;;;;;;;6.82;1.80;;;10.70;99.90;;;;;;5014036;28;20018;-75
2021/11/07 05:23:01;;;;;;;3.00;1.50;;;10.70;99.90;;;;;;5012470;28;20105;-75
2021/11/07 05:25:27;;;;;;;6.78;1.85;;;10.70;99.90;;;;;;5013964;28;20025;-76
2021/11/07 05:27:53;;;;;;;7.65;1.75;;;10.70;99.90;;;;;;5012696;28;20472;-75
2021/11/07 05:30:19;;;;;;;4.47;1.73;;;10.70;99.90;;;;;;5013827;28;20032;-76
2021/11/07 05:32:45;;;;;;;2.83;1.38;;;10.70;99.90;;;;;;5013686;28;20018;-75
2021/11/07 05:35:13;;;;;;;3.08;1.45;;;10.70;99.90;;;;;;5013801;28;20049;-75
2021/11/07 05:37:39;;;;;;;5.03;1.55;;;10.80;99.90;;;;;;5014505;28;20370;-75
2021/11/07 05:40:06;;;;;;;4.00;1.70;;;10.80;99.90;;;;;;5014297;28;20022;-75
2021/11/07 05:42:32;;;;;;;1.92;1.20;;;10.70;99.90;;;;;;5012343;28;20105;-76
2021/11/07 05:44:57;;;;;;;2.92;1.17;;;10.60;99.90;;;;;;5012273;28;20060;-75
2021/11/07 05:47:23;;;;;;;5.35;1.48;;;10.60;99.90;;;;;;5012313;28;20022;-76
2021/11/07 05:49:49;;;;;;;3.10;1.48;;;10.60;99.90;;;;;;5012287;28;20021;-75
2021/11/07 05:52:17;;;;;;;2.53;1.17;;;10.60;99.90;;;;;;5012360;28;20033;-76
2021/11/07 05:54:43;;;;;;;4.72;1.80;;;10.60;99.90;;;;;;5012542;28;20053;-75
2021/11/07 05:57:09;;;;;;;3.00;1.25;;;10.60;99.90;;;;;;5012280;28;20368;-75
2021/11/07 05:59:35;;;;;;;4.85;1.38;;;10.60;99.90;;;;;;5012368;28;20498;-76
2021/11/07 06:02:01;;;;;;;2.42;1.23;;;10.50;99.90;;;;;;5012244;28;20014;-76
2021/11/07 06:04:26;;;;;;;5.97;1.42;;;10.50;99.90;;;;;;5013413;28;20136;-75
2021/11/07 06:06:52;;;;;;;4.65;1.40;;;10.50;99.90;;;;;;5013642;28;20457;-75
2021/11/07 06:09:18;;;;;;;2.47;1.30;;;10.50;99.90;;;;;;5012048;28;20052;-76
2021/11/07 06:11:45;;;;;;;5.32;1.50;;;10.40;99.90;;;;;;5012843;28;20368;-75
2021/11/07 06:14:11;;;;;;;2.40;1.33;;;10.40;99.90;;;;;;5013236;28;20101;-76
2021/11/07 06:16:37;;;;;;;3.90;1.30;;;10.40;99.90;;;;;;5012982;28;20320;-76
2021/11/07 06:19:03;;;;;;;2.83;0.95;;;10.40;99.90;;;;;;5013385;28;20022;-76
2021/11/07 06:21:29;;;;;;;2.83;1.00;;;10.30;99.90;;;;;;5011906;28;20480;-76
2021/11/07 06:23:56;;;;;;;6.38;1.17;;;10.30;99.90;;;;;;5012016;28;20516;-75
2021/11/07 06:26:22;;;;;;;4.63;1.17;;;10.20;99.90;;;;;;5011892;28;20361;-75
2021/11/07 06:28:49;;;;;;;2.63;0.60;;;10.20;99.90;;;;;;5011924;28;20021;-74
2021/11/07 06:31:15;;;;;;;3.33;0.90;;;10.10;99.90;;;;;;5013703;28;20018;-76
2021/11/07 06:33:41;;;;;;;4.70;1.52;;;10.10;99.90;;;;;;5011510;28;20044;-75
2021/11/07 06:36:07;;;;;;;3.53;1.17;;;10.00;99.90;;;;;;5013782;28;20018;-75
2021/11/07 06:38:33;;;;;;;6.30;1.50;;;10.00;99.90;;;;;;5012022;28;20024;-75
2021/11/07 06:40:59;;;;;;;4.10;0.95;;;10.00;99.90;;;;;;5013132;28;20501;-75
2021/11/07 06:43:26;;;;;;;3.30;1.15;;;9.90;99.90;;;;;;5013347;28;20072;-75
2021/11/07 06:45:52;;;;;;;8.13;1.40;;;9.90;99.90;;;;;;5011665;28;20029;-75
2021/11/07 06:48:18;;;;;;;4.20;1.10;;;9.90;99.90;;;;;;5011505;28;20025;-75
2021/11/07 06:50:43;;;;;;;3.55;1.02;;;9.90;99.90;;;;;;5012734;28;20024;-76
2021/11/07 06:53:09;;;;;;;6.88;1.15;;;9.80;99.90;;;;;;5012198;28;20430;-75
2021/11/07 06:55:35;;;;;;;2.05;1.10;;;9.80;99.90;;;;;;5014730;28;20022;-75
2021/11/07 06:58:01;;;;;;;1.50;0.90;;;9.80;99.90;;;;;;5016577;28;20057;-75
2021/11/07 07:00:28;;;;;;;2.10;0.90;;;9.70;99.90;;;;;;5016704;28;20029;-76
2021/11/07 07:02:54;;;;;;;5.15;1.05;;;9.70;99.90;;;;;;5017259;28;20088;-74
2021/11/07 07:05:21;;;;;;;2.72;1.00;;;9.70;99.90;;;;;;5016655;28;20033;-74
2021/11/07 07:07:51;;;;;;;2.22;0.80;;;9.70;99.90;;;;;;5015425;28;20022;-76
2021/11/07 07:10:26;;;;;;;3.05;0.77;;;9.70;99.90;;;;;;5015840;28;20083;-75
2021/11/07 07:13:05;;;;;;;7.15;1.20;;;9.60;99.90;;;;;;5016855;28;20022;-75
2021/11/07 07:15:38;;;;;;;8.38;1.27;;;9.60;99.90;;;;;;5016724;28;20456;-76
2021/11/07 07:18:38;;;;;;;3.28;1.15;;;9.60;99.90;;;;;;5016801;28;20029;-75
2021/11/07 07:34:20;;;;;;;1.75;0.90;;;9.60;99.90;;;;;;5016070;28;19914;-76
2021/11/07 07:36:46;;;;;;;3.28;1.20;;;9.60;99.90;;;;;;5016572;28;20010;-75
2021/11/07 07:39:12;;;;;;;3.53;1.00;;;9.70;99.90;;;;;;5015804;28;20101;-75
2021/11/07 07:41:38;;;;;;;2.80;1.35;;;9.70;99.90;;;;;;5016439;28;20083;-76
2021/11/07 07:44:08;;;;;;;3.20;1.02;;;9.70;99.90;;;;;;5014698;28;20362;-75
2021/11/07 07:46:40;;;;;;;4.25;0.90;;;9.70;99.90;;;;;;5015821;28;20076;-75
2021/11/07 07:49:06;;;;;;;8.85;1.45;;;9.70;99.90;;;;;;5016027;28;20022;-76
2021/11/07 07:51:32;;;;;;;4.05;1.15;;;9.60;99.90;;;;;;5015781;28;20029;-76
2021/11/07 07:54:01;;;;;;;6.78;1.23;;;9.70;99.90;;;;;;5015760;28;20026;-76
2021/11/07 07:56:27;;;;;;;3.67;1.02;;;9.60;99.90;;;;;;5015692;28;20105;-76
2021/11/07 07:58:53;;;;;;;5.55;0.95;;;9.60;99.90;;;;;;5015782;28;20017;-75
2021/11/07 08:01:18;;;;;;;3.15;1.00;;;9.70;99.90;;;;;;5015736;28;20025;-76
2021/11/07 08:03:44;;;;;;;2.90;1.00;;;9.70;99.90;;;;;;5015837;28;20017;-76
2021/11/07 08:06:10;;;;;;;2.65;1.13;;;9.70;99.90;;;;;;5015362;28;20022;-76
2021/11/07 08:08:35;;;;;;;3.80;1.00;;;9.70;99.90;;;;;;5015464;28;20028;-74
2021/11/07 08:11:01;;;;;;;2.40;0.85;;;9.70;99.90;;;;;;5015519;28;20018;-75
2021/11/07 08:13:27;;;;;;;7.82;1.40;;;9.70;99.90;;;;;;5013871;28;20018;-76
2021/11/07 08:15:54;;;;;;;7.85;1.27;;;9.80;99.90;;;;;;5015378;28;20464;-75
2021/11/07 08:18:20;;;;;;;6.07;1.52;;;9.80;99.90;;;;;;5015354;28;20096;-75
2021/11/07 08:20:47;;;;;;;8.93;1.52;;;9.90;99.90;;;;;;5015686;28;20079;-75
2021/11/07 08:23:14;;;;;;;10.68;2.00;;;10.00;99.90;;;;;;5015679;28;20018;-75
2021/11/07 08:25:41;;;;;;;8.07;1.58;;;10.20;99.90;;;;;;5015179;28;20028;-75
2021/11/07 08:28:07;;;;;;;4.22;2.25;;;10.20;99.90;;;;;;5015131;28;20152;-75
2021/11/07 08:30:40;;;;;;;6.00;1.83;;;10.20;99.90;;;;;;5013626;28;20064;-75
2021/11/07 08:33:06;;;;;;;11.75;1.63;;;10.10;99.90;;;;;;5015100;28;20056;-75
2021/11/07 08:35:37;;;;;;;10.02;1.65;;;9.90;99.90;;;;;;5013488;28;20045;-76
2021/11/07 08:38:07;;;;;;;5.50;1.55;;;9.80;99.90;;;;;;5015581;28;20022;-75
2021/11/07 08:40:42;;;;;;;7.80;1.40;;;9.60;99.90;;;;;;5013533;28;20025;-75
2021/11/07 09:07:25;;;;;;;3.28;1.23;;;9.50;99.90;;;;;;5014495;28;20088;-73
2021/11/07 09:09:59;;;;;;;5.25;1.35;;;9.60;99.90;;;;;;5013600;28;20029;-74
2021/11/07 09:12:26;;;;;;;3.10;1.10;;;9.60;99.90;;;;;;5014443;28;20462;-74
2021/11/07 09:14:51;;;;;;;5.80;1.85;;;9.80;99.90;;;;;;5014262;28;20138;-74
2021/11/07 09:17:18;;;;;;;4.50;1.33;;;9.90;99.90;;;;;;5014213;28;20101;-74
2021/11/07 09:19:47;;;;;;;8.25;1.80;;;10.00;99.90;;;;;;5012383;28;20021;-75
2021/11/07 09:23:03;;;;;;;6.72;1.92;;;10.20;99.90;;;;;;5014219;28;20017;-74
2021/11/07 09:25:05;;;;;;;6.65;1.42;;;10.30;99.90;;;;;;5009976;28;20068;-74
2021/11/07 09:27:40;;;;;;;10.35;1.75;;;10.40;99.90;;;;;;5013016;28;20053;-75
2021/11/07 09:30:12;;;;;;;7.55;1.50;;;10.50;99.90;;;;;;5012874;28;20369;-74
2021/11/07 09:32:50;;;;;;;6.50;1.40;;;10.60;99.90;;;;;;5013994;28;20018;-75
2021/11/07 09:35:25;;;;;;;6.78;1.73;;;10.60;99.90;;;;;;5012531;28;20115;-74
2021/11/07 09:37:58;;;;;;;3.70;1.20;;;10.50;99.90;;;;;;5014051;28;20536;-74
2021/11/07 09:40:26;;;;;;;4.80;1.23;;;10.50;99.90;;;;;;5013426;28;20508;-75
2021/11/07 09:43:08;;;;;;;6.95;1.83;;;10.50;99.90;;;;;;5013550;28;20014;-74
2021/11/07 09:45:47;;;;;;;3.10;1.40;;;10.50;99.90;;;;;;5012701;28;20425;-76
2021/11/07 09:48:18;;;;;;;5.80;1.67;;;10.50;99.90;;;;;;5012680;28;20068;-74
2021/11/07 09:50:46;;;;;;;5.70;1.45;;;10.60;99.90;;;;;;5012031;28;20373;-74
2021/11/07 09:53:13;;;;;;;8.93;1.27;;;10.70;99.90;;;;;;5013614;28;20096;-75
2021/11/07 09:55:39;;;;;;;4.60;1.52;;;10.80;99.90;;;;;;5012148;28;20191;-73
2021/11/07 09:58:06;;;;;;;5.28;1.70;;;10.80;99.90;;;;;;5013602;28;20017;-74
2021/11/07 10:00:41;;;;;;;4.35;1.17;;;10.90;99.90;;;;;;5013657;28;20025;-74
2021/11/07 10:03:09;;;;;;;12.05;1.88;;;11.00;99.90;;;;;;5013341;28;20430;-76
2021/11/07 10:05:45;;;;;;;14.52;2.05;;;10.90;99.90;;;;;;5013511;28;20022;-77
2021/11/07 10:08:12;;;;;;;9.57;2.35;;;10.90;99.90;;;;;;5012279;28;20504;-74
2021/11/07 10:10:45;;;;;;;5.15;1.77;;;10.80;99.90;;;;;;5012247;28;20480;-74
2021/11/07 10:13:22;;;;;;;9.80;1.80;;;10.80;99.90;;;;;;5012487;28;20018;-74
2021/11/07 10:16:02;;;;;;;5.75;1.42;;;10.80;99.90;;;;;;5013337;28;20065;-75
2021/11/07 10:19:01;;;;;;;5.00;1.52;;;10.90;99.90;;;;;;5012330;28;20472;-74
2021/11/07 10:21:36;;;;;;;8.60;1.73;;;11.00;99.90;;;;;;5013398;28;20026;-74
2021/11/07 10:24:17;;;;;;;10.80;2.45;;;11.20;99.90;;;;;;5012914;28;20438;-75
2021/11/07 10:26:46;;;;;;;7.55;1.73;;;11.40;99.90;;;;;;5013884;28;20021;-74
2021/11/07 10:29:27;;;;;;;7.85;1.85;;;11.50;99.90;;;;;;5013287;28;20018;-74
2021/11/07 10:32:00;;;;;;;6.00;1.77;;;11.60;99.90;;;;;;5017288;28;20022;-75
2021/11/07 10:53:23;;;;;;;10.68;2.17;;;12.30;99.90;;;;;;5016698;28;20416;-74
2021/11/07 10:56:01;;;;;;;7.53;1.70;;;12.50;99.90;;;;;;5015415;28;20022;-75
2021/11/07 10:58:29;;;;;;;7.38;1.73;;;12.60;99.90;;;;;;5017396;28;20032;-75
2021/11/07 11:00:59;;;;;;;5.82;1.90;;;12.70;99.90;;;;;;5016778;28;20061;-75
2021/11/07 11:03:26;;;;;;;7.72;1.95;;;12.80;99.70;;;;;;5015165;28;20014;-76
2021/11/07 11:05:55;;;;;;;7.32;2.03;;;12.90;99.30;;;;;;5015412;28;20021;-76
2021/11/07 11:08:32;;;;;;;9.98;2.33;;;12.80;99.10;;;;;;5016685;28;20054;-75
2021/11/07 11:11:13;;;;;;;6.60;1.52;;;12.70;99.00;;;;;;5016717;28;20063;-76
2021/11/07 11:31:00;;;;;;;9.15;1.85;;;12.50;98.40;;;;;;5016787;28;20105;-75
2021/11/07 11:33:40;;;;;;;4.43;1.63;;;12.60;98.40;;;;;;5016742;28;20020;-75
2021/11/07 11:36:27;;;;;;;10.57;2.08;;;12.60;98.20;;;;;;5016137;28;20045;-75
2021/11/07 11:38:59;;;;;;;8.63;1.90;;;12.80;98.00;;;;;;5014778;28;20451;-75
2021/11/07 11:43:53;;;;;;;8.65;1.50;;;12.90;97.70;;;;;;5015949;28;20040;-75
2021/11/07 11:46:46;;;;;;;6.78;1.50;;;12.90;97.60;;;;;;5015535;28;20378;-76
2021/11/07 11:52:18;;;;;;;13.95;1.67;;;12.90;97.10;;;;;;5016405;28;20448;-75
2021/11/07 12:05:40;;;;;;;2.90;1.10;;;12.40;97.00;;;;;;5015498;28;20117;-75
2021/11/07 12:08:13;;;;;;;4.80;1.35;;;12.30;96.80;;;;;;5015219;28;20129;-75
2021/11/07 12:10:53;;;;;;;4.43;1.40;;;12.20;96.90;;;;;;5014125;28;20059;-75
2021/11/07 12:13:55;;;;;;;5.25;1.40;;;11.90;96.50;;;;;;5013725;28;20030;-75
2021/11/07 12:16:56;;;;;;;3.72;1.15;;;11.50;96.70;;;;;;5014249;28;20037;-76
2021/11/07 12:19:35;;;;;;;6.18;1.10;;;11.30;97.00;;;;;;5014621;28;20026;-75
2021/11/07 12:22:03;;;;;;;3.42;1.10;;;11.10;97.20;;;;;;5015304;28;20034;-75
2021/11/07 12:24:36;;;;;;;3.25;1.08;;;11.00;97.30;;;;;;5015695;28;20346;-74
2021/11/07 12:27:20;;;;;;;6.15;1.65;;;10.90;97.40;;;;;;5014172;28;20362;-75
2021/11/07 12:29:47;;;;;;;0.93;0.80;;;10.90;97.50;;;;;;5013554;28;20033;-75
2021/11/07 12:32:13;;;;;;;6.82;1.50;;;10.90;97.50;;;;;;5013284;28;20030;-75
2021/11/07 12:35:08;;;;;;;1.35;0.80;;;10.90;97.40;;;;;;5013348;28;20058;-75
2021/11/07 12:40:40;;;;;;;1.88;0.88;;;10.80;97.60;;;;;;5014785;28;20447;-75
2021/11/07 12:43:12;;;;;;;7.10;1.20;;;10.80;97.90;;;;;;5015014;28;20045;-75
2021/11/07 12:45:43;;;;;;;6.78;1.23;;;10.90;97.50;;;;;;5013172;28;20124;-75
2021/11/07 12:48:10;;;;;;;;;;;10.90;97.40;;;;;;5013917;28;20478;-74
2021/11/07 12:50:50;;;;;;;4.78;1.48;;;11.00;97.40;;;;;;5015145;28;19906;-75
2021/11/07 12:53:16;;;;;;;8.32;1.60;;;11.10;97.40;;;;;;5013624;28;20017;-75
2021/11/07 12:55:42;;;;;;;4.35;1.27;;;11.10;97.20;;;;;;5013281;28;20489;-74
2021/11/07 12:58:07;;;;;;;5.85;1.48;;;11.10;97.30;;;;;;5014459;28;20100;-75
2021/11/07 13:00:34;;;;;;;6.68;1.50;;;11.20;97.30;;;;;;5013449;28;20063;-75
2021/11/07 13:03:09;;;;;;;4.85;1.30;;;11.20;97.20;;;;;;5014031;28;20409;-75
2021/11/07 13:05:39;;;;;;;5.85;1.45;;;11.30;97.10;;;;;;5014422;28;20433;-75
2021/11/07 13:08:17;;;;;;;2.60;0.90;;;11.40;96.90;;;;;;5014864;28;20033;-75
2021/11/07 13:10:53;;;;;;;8.32;1.45;;;11.40;96.90;;;;;;5013331;28;20030;-75
2021/11/07 13:13:55;;;;;;;6.93;1.63;;;11.40;96.90;;;;;;5013701;28;20117;-75
2021/11/07 13:20:34;;;;;;;9.00;1.73;;;11.50;96.60;;;;;;4973303;28;20038;-75
2021/11/07 13:27:48;;;;;;;5.45;1.52;;;11.50;96.50;;;;;;4972671;28;20101;-75
2021/11/07 13:30:17;;;;;;;6.32;1.70;;;11.60;96.50;;;;;;4973096;28;20038;-75
2021/11/07 13:32:43;;;;;;;4.75;1.17;;;11.70;96.50;;;;;;4956207;28;20077;-76
2021/11/07 13:35:16;;;;;;;8.30;1.52;;;11.70;96.40;;;;;;4972227;28;20054;-75
2021/11/07 13:38:05;;;;;;;7.88;2.10;;;11.80;96.40;;;;;;4972592;28;20034;-74
2021/11/07 13:40:36;;;;;;;6.18;1.70;;;11.70;96.50;;;;;;4972889;28;20023;-75
2021/11/07 13:43:15;;;;;;;7.65;1.98;;;11.70;96.50;;;;;;4972760;28;20027;-74
2021/11/07 13:45:45;;;;;;;8.38;1.55;;;11.50;96.70;;;;;;4972993;28;20035;-75
2021/11/07 13:48:21;;;;;;;7.90;1.45;;;11.40;96.70;;;;;;4956398;28;20031;-75
2021/11/07 13:50:48;;;;;;;7.30;1.67;;;11.20;96.90;;;;;;4987856;28;20039;-75
2021/11/07 13:53:19;;;;;;;7.18;1.30;;;11.00;97.10;;;;;;4992244;28;20030;-75
2021/11/07 13:55:54;;;;;;;3.50;0.85;;;10.90;97.40;;;;;;4992803;28;20031;-75
2021/11/07 13:58:25;;;;;;;4.35;1.30;;;10.90;97.60;;;;;;4993957;28;20038;-75
2021/11/07 14:00:52;;;;;;;;;;;10.90;97.60;;;;;;4994322;28;20062;-76
2021/11/07 14:03:19;;;;;;;6.60;1.83;;;10.80;97.60;;;;;;4993260;28;19926;-76
2021/11/07 14:06:04;;;;;;;2.63;1.20;;;10.50;97.80;;;;;;4994020;28;20022;-75
2021/11/07 14:08:43;;;;;;;5.10;1.13;;;10.10;98.30;;;;;;4993847;28;20467;-75
2021/11/07 14:11:09;;;;;;;2.53;0.77;;;9.90;98.70;;;;;;4992575;28;20026;-76
2021/11/07 14:13:41;;;;;;;1.77;0.90;;;9.60;98.90;;;;;;4993600;28;20026;-76
2021/11/07 14:16:07;;;;;;;0.77;0.40;;;9.40;99.20;;;;;;4992295;28;20117;-75
2021/11/07 14:18:41;;;;;;;2.25;0.70;;;9.30;99.20;;;;;;4993314;28;20018;-75
2021/11/07 14:21:08;;;;;;;0.85;0.40;;;9.30;99.40;;;;;;4992210;28;20034;-75
2021/11/07 14:23:46;;;;;;;0.47;0.47;;;9.20;99.50;;;;;;4993580;28;20053;-74
2021/11/07 14:26:21;;;;;;;0.80;0.50;;;9.10;99.60;;;;;;4992422;28;20329;-75
2021/11/07 14:31:57;;;;;;;0.28;0.28;;;9.10;99.90;;;;;;4993268;28;20112;-75
2021/11/07 14:50:16;;;;;;;0.43;0.43;;;9.60;99.90;;;;;;5012994;28;20474;-75
2021/11/07 14:53:07;;;;;;;0.20;0.20;;;9.60;99.90;;;;;;5013021;28;20061;-75
2021/11/07 14:55:49;;;;;;;0.20;0.20;;;9.60;99.90;;;;;;5012058;28;20034;-75
2021/11/07 15:03:20;;;;;;;0.20;0.20;;;9.80;99.90;;;;;;5012911;28;20026;-75
2021/11/07 15:05:58;;;;;;;0.70;0.20;;;9.80;99.90;;;;;;5012409;28;20033;-75
2021/11/07 15:08:30;;;;;;;0.20;0.20;;;9.80;99.90;;;;;;5013394;28;20096;-74
2021/11/07 15:19:55;;;;;;;0.25;0.20;;;9.80;99.90;;;;;;5007489;28;20363;-74
2021/11/07 15:22:21;;;;;;;0.20;0.20;;;9.80;99.90;;;;;;5016296;28;20050;-74
2021/11/07 15:24:52;;;;;;;0.20;0.20;;;9.80;99.90;;;;;;5016530;28;20036;-74
2021/11/07 15:27:26;;;;;;;0.20;0.20;;;9.80;99.90;;;;;;5014677;28;20045;-74
2021/11/07 15:30:00;;;;;;;0.20;0.20;;;9.70;99.90;;;;;;5015167;28;20157;-75
2021/11/07 15:32:38;;;;;;;0.20;0.20;;;9.70;99.90;;;;;;5016743;28;20029;-74
2021/11/07 15:35:20;;;;;;;0.20;0.20;;;9.60;99.90;;;;;;5014554;28;20049;-74
2021/11/07 15:37:46;;;;;;;0.35;0.30;;;9.70;99.90;;;;;;5016558;28;20025;-74
2021/11/07 15:40:13;;;;;;;0.20;0.20;;;9.60;99.90;;;;;;5015949;28;20496;-75
2021/11/07 15:42:41;;;;;;;0.20;0.20;;;9.70;99.90;;;;;;5014657;28;20022;-75